createdAt,value
2022-12-06T00:08:50.001Z,73.91
2022-12-06T00:15:09.626Z,74.33
2022-12-06T00:18:31.268Z,74.49
2022-12-06T00:21:13.015Z,74.43
2022-12-06T00:29:49.072Z,73.83
2022-12-06T00:39:08.266Z,73.97
2022-12-06T00:42:05.097Z,73.73
2022-12-06T00:44:38.895Z,73.88
2022-12-06T00:54:33.843Z,72.97
2022-12-06T00:57:01.872Z,73.17
2022-12-06T01:00:15.097Z,74.07
2022-12-06T01:03:59.362Z,73.91
2022-12-06T01:14:47.592Z,72.99
2022-12-06T01:28:37.771Z,74.25
2022-12-06T02:09:28.565Z,74.37
2022-12-06T02:13:16.003Z,74.38
2022-12-06T02:15:56.586Z,73.09
2022-12-06T02:27:05.717Z,74.36
2022-12-06T02:53:15.028Z,73.93
2022-12-06T02:55:44.681Z,73.72
2022-12-06T02:58:12.379Z,73.43
2022-12-06T03:00:42.291Z,73.47
2022-12-06T03:03:30.404Z,73.74
2022-12-06T03:06:22.776Z,73.22
2022-12-06T03:08:58.884Z,73.55
2022-12-06T03:11:29.125Z,73.32
2022-12-06T03:14:02.317Z,73.41
2022-12-06T03:16:33.838Z,73.41
2022-12-06T03:19:07.417Z,72.78
2022-12-06T03:21:40.299Z,73.20
2022-12-06T03:24:14.651Z,73.67
2022-12-06T03:26:45.914Z,73.39
2022-12-06T03:29:16.430Z,73.76
2022-12-06T03:31:47.868Z,73.71
2022-12-06T03:34:20.014Z,73.91
2022-12-06T03:36:50.487Z,74.48
2022-12-06T03:39:26.974Z,73.73
2022-12-06T03:41:58.623Z,73.74
2022-12-06T03:44:36.517Z,74.05
2022-12-06T03:47:12.348Z,73.81
2022-12-06T03:49:44.059Z,73.55
2022-12-06T03:52:11.909Z,73.57
2022-12-06T03:54:41.243Z,74.10
2022-12-06T03:57:09.312Z,74.62
2022-12-06T03:59:37.042Z,73.60
2022-12-06T04:02:05.027Z,74.36
2022-12-06T04:04:33.107Z,73.38
2022-12-06T04:07:00.720Z,73.56
2022-12-06T04:09:49.440Z,73.31
2022-12-06T04:12:44.195Z,73.26
2022-12-06T04:15:12.102Z,73.38
2022-12-06T04:17:59.256Z,73.53
2022-12-06T04:20:28.652Z,73.13
2022-12-06T04:23:04.548Z,73.13
2022-12-06T04:25:33.179Z,73.00
2022-12-06T04:28:20.460Z,73.35
2022-12-06T04:31:05.801Z,73.10
2022-12-06T04:33:51.145Z,73.22
2022-12-06T04:36:36.427Z,72.42
2022-12-06T04:39:04.363Z,73.03
2022-12-06T04:41:49.294Z,72.61
2022-12-06T04:44:18.320Z,72.87
2022-12-06T04:46:46.287Z,73.54
2022-12-06T04:49:14.099Z,73.81
2022-12-06T04:51:41.927Z,73.75
2022-12-06T04:54:09.767Z,73.61
2022-12-06T04:56:37.398Z,73.12
2022-12-06T04:59:05.040Z,73.13
2022-12-06T05:01:34.146Z,72.50
2022-12-06T05:04:01.926Z,72.79
2022-12-06T05:06:29.627Z,73.12
2022-12-06T05:08:57.331Z,73.05
2022-12-06T05:11:25.085Z,72.94
2022-12-06T05:13:52.724Z,72.72
2022-12-06T05:16:20.428Z,73.05
2022-12-06T05:18:49.454Z,71.98
2022-12-06T05:21:19.463Z,72.23
2022-12-06T05:23:47.254Z,72.71
2022-12-06T05:26:17.128Z,72.68
2022-12-06T05:28:45.719Z,72.70
2022-12-06T05:31:13.817Z,73.11
2022-12-06T05:33:41.779Z,73.03
2022-12-06T05:36:13.221Z,73.45
2022-12-06T05:38:41.188Z,73.24
2022-12-06T05:41:09.553Z,73.34
2022-12-06T05:43:37.250Z,73.66
2022-12-06T05:46:05.426Z,73.65
2022-12-06T05:48:33.286Z,73.66
2022-12-06T05:51:00.928Z,73.67
2022-12-06T05:53:30.010Z,73.64
2022-12-06T05:55:59.010Z,73.32
2022-12-06T05:58:39.738Z,73.38
2022-12-06T06:01:08.882Z,73.75
2022-12-06T06:03:38.994Z,73.57
2022-12-06T06:06:11.007Z,74.34
2022-12-06T06:08:40.016Z,74.26
2022-12-06T06:11:09.787Z,74.01
2022-12-06T06:13:37.610Z,73.53
2022-12-06T06:16:05.948Z,73.23
2022-12-06T06:18:33.691Z,72.80
2022-12-06T06:21:01.948Z,73.34
2022-12-06T06:23:30.047Z,72.85
2022-12-06T06:26:01.551Z,72.76
2022-12-06T06:28:29.155Z,72.68
2022-12-06T06:30:56.791Z,72.34
2022-12-06T06:33:24.409Z,72.13
2022-12-06T06:35:52.082Z,72.43
2022-12-06T06:38:19.751Z,72.24
2022-12-06T06:40:47.527Z,72.97
2022-12-06T06:43:20.348Z,72.64
2022-12-06T06:45:53.497Z,72.70
2022-12-06T06:48:21.579Z,71.99
2022-12-06T06:50:53.949Z,72.42
2022-12-06T06:53:25.108Z,72.79
2022-12-06T06:55:53.940Z,72.61
2022-12-06T06:58:22.904Z,72.53
2022-12-06T07:00:55.083Z,71.68
2022-12-06T07:03:23.091Z,72.34
2022-12-06T07:05:54.827Z,72.35
2022-12-06T07:08:23.023Z,72.40
2022-12-06T07:10:50.780Z,72.53
2022-12-06T07:13:20.719Z,73.03
2022-12-06T07:15:50.335Z,72.33
2022-12-06T07:18:19.104Z,71.65
2022-12-06T07:20:47.945Z,71.12
2022-12-06T07:23:16.101Z,70.96
2022-12-06T07:25:43.759Z,70.86
2022-12-06T07:28:11.423Z,71.10
2022-12-06T07:30:39.109Z,70.99
2022-12-06T07:33:08.113Z,71.55
2022-12-06T07:36:10.809Z,71.86
2022-12-06T07:38:23.347Z,71.09
2022-12-06T07:41:06.543Z,71.44
2022-12-06T07:43:51.606Z,71.83
2022-12-06T07:46:19.322Z,71.45
2022-12-06T07:48:48.364Z,71.58
2022-12-06T07:51:15.972Z,71.72
2022-12-06T07:53:43.684Z,71.53
2022-12-06T07:56:11.638Z,71.94
2022-12-06T07:58:39.254Z,72.10
2022-12-06T08:01:07.033Z,71.40
2022-12-06T08:03:34.758Z,71.26
2022-12-06T08:06:03.808Z,71.12
2022-12-06T08:08:31.679Z,70.83
2022-12-06T08:10:59.893Z,70.71
2022-12-06T08:13:27.551Z,70.33
2022-12-06T08:15:55.254Z,70.65
2022-12-06T08:18:23.446Z,71.11
2022-12-06T08:20:52.219Z,70.70
2022-12-06T08:23:21.240Z,70.78
2022-12-06T08:25:56.771Z,70.60
2022-12-06T08:28:24.403Z,70.34
2022-12-06T08:30:52.250Z,69.93
2022-12-06T08:33:21.770Z,69.91
2022-12-06T08:35:49.568Z,70.00
2022-12-06T08:38:17.555Z,70.49
2022-12-06T08:40:46.537Z,70.14
2022-12-06T08:43:14.174Z,70.63
2022-12-06T08:45:41.836Z,70.66
2022-12-06T08:48:09.462Z,69.79
2022-12-06T08:50:39.679Z,69.97
2022-12-06T08:53:07.373Z,70.63
2022-12-06T08:55:35.021Z,70.26
2022-12-06T08:58:04.023Z,70.51
2022-12-06T09:00:31.700Z,69.91
2022-12-06T09:02:59.390Z,69.13
2022-12-06T09:05:27.042Z,69.73
2022-12-06T09:07:54.743Z,69.94
2022-12-06T09:10:22.400Z,70.43
2022-12-06T09:12:50.613Z,69.58
2022-12-06T09:15:19.633Z,70.92
2022-12-06T09:17:47.411Z,71.47
2022-12-06T09:20:18.121Z,70.49
2022-12-06T09:22:46.070Z,70.06
2022-12-06T09:25:13.745Z,69.58
2022-12-06T09:27:41.364Z,69.73
2022-12-06T09:30:10.061Z,69.14
2022-12-06T09:32:39.213Z,69.53
2022-12-06T09:35:12.302Z,68.71
2022-12-06T09:37:43.050Z,68.93
2022-12-06T09:40:17.871Z,69.46
2022-12-06T09:42:59.089Z,69.81
2022-12-06T09:45:39.515Z,69.09
2022-12-06T09:48:48.910Z,69.66
2022-12-06T09:51:27.582Z,69.83
2022-12-06T09:54:08.509Z,70.15
2022-12-06T09:56:42.476Z,70.63
2022-12-06T09:59:20.923Z,70.95
2022-12-06T10:02:02.937Z,70.85
2022-12-06T10:04:50.510Z,71.11
2022-12-06T10:07:26.843Z,71.06
2022-12-06T10:10:11.104Z,71.07
2022-12-06T10:12:56.408Z,70.66
2022-12-06T10:15:39.162Z,70.65
2022-12-06T10:18:24.258Z,70.43
2022-12-06T10:21:02.475Z,68.84
2022-12-06T10:23:42.232Z,68.54
2022-12-06T10:26:15.586Z,68.67
2022-12-06T10:28:48.284Z,69.33
2022-12-06T10:31:24.740Z,69.21
2022-12-06T10:33:57.699Z,69.10
2022-12-06T10:36:42.777Z,68.52
2022-12-06T10:39:19.658Z,68.94
2022-12-06T10:41:56.620Z,69.25
2022-12-06T10:44:30.313Z,68.65
2022-12-06T10:47:06.969Z,67.98
2022-12-06T10:49:53.571Z,67.67
2022-12-06T10:52:29.969Z,68.46
2022-12-06T10:55:05.887Z,68.36
2022-12-06T10:57:43.224Z,68.36
2022-12-06T11:00:16.969Z,68.36
2022-12-06T11:02:54.397Z,68.44
2022-12-06T11:05:25.520Z,68.13
2022-12-06T11:08:03.329Z,68.64
2022-12-06T11:10:35.035Z,68.19
2022-12-06T11:13:12.743Z,68.58
2022-12-06T11:15:47.292Z,67.78
2022-12-06T11:18:17.743Z,68.02
2022-12-06T11:20:50.213Z,67.64
2022-12-06T11:23:26.348Z,67.68
2022-12-06T11:26:05.405Z,67.62
2022-12-06T11:28:38.179Z,67.42
2022-12-06T11:31:17.334Z,66.78
2022-12-06T11:33:46.356Z,66.61
2022-12-06T11:36:14.367Z,67.23
2022-12-06T11:38:45.163Z,67.86
2022-12-06T11:41:18.616Z,67.69
2022-12-06T11:43:46.608Z,67.27
2022-12-06T11:46:15.929Z,67.85
2022-12-06T11:48:44.572Z,68.30
2022-12-06T11:51:18.566Z,69.16
2022-12-06T11:53:57.372Z,69.34
2022-12-06T11:56:27.416Z,67.19
2022-12-06T11:59:17.841Z,65.41
2022-12-06T12:01:48.129Z,64.65
2022-12-06T12:04:28.904Z,65.29
2022-12-06T12:07:00.714Z,66.10
2022-12-06T12:09:32.396Z,67.49
2022-12-06T12:12:04.387Z,67.12
2022-12-06T12:14:38.261Z,65.94
2022-12-06T12:17:15.244Z,66.29
2022-12-06T12:19:47.963Z,67.02
2022-12-06T12:22:22.590Z,67.32
2022-12-06T12:27:51.548Z,66.09
2022-12-06T12:30:32.611Z,66.00
2022-12-06T12:33:21.752Z,66.90
2022-12-06T12:35:54.504Z,67.21
2022-12-06T12:38:29.711Z,67.29
2022-12-06T12:41:03.021Z,67.82
2022-12-06T12:43:32.907Z,68.52
2022-12-06T12:46:20.804Z,69.00
2022-12-06T12:48:50.356Z,66.68
2022-12-06T12:51:25.220Z,66.09
2022-12-06T12:53:56.252Z,66.95
2022-12-06T12:56:26.824Z,66.32
2022-12-06T12:58:56.349Z,67.32
2022-12-06T13:01:34.454Z,67.29
2022-12-06T13:04:08.288Z,68.03
2022-12-06T13:06:43.623Z,67.10
2022-12-06T13:09:15.486Z,68.15
2022-12-06T13:11:52.777Z,68.75
2022-12-06T13:14:23.644Z,68.80
2022-12-06T13:16:54.428Z,69.04
2022-12-06T13:19:29.960Z,65.09
2022-12-06T13:21:57.627Z,65.20
2022-12-06T13:24:29.863Z,66.67
2022-12-06T13:27:01.642Z,67.67
2022-12-06T13:29:34.066Z,65.65
2022-12-06T13:32:06.676Z,63.37
2022-12-06T13:34:38.569Z,62.98
2022-12-06T13:37:28.043Z,61.65
2022-12-06T13:39:56.198Z,61.38
2022-12-06T13:42:43.439Z,62.07
2022-12-06T13:45:40.905Z,62.57
2022-12-06T13:48:36.223Z,62.80
2022-12-06T13:51:06.326Z,62.68
2022-12-06T13:53:35.792Z,63.91
2022-12-06T13:56:24.414Z,62.15
2022-12-06T13:58:55.620Z,62.52
2022-12-06T14:01:50.813Z,61.76
2022-12-06T14:07:05.338Z,63.39
2022-12-06T14:09:42.781Z,64.37
2022-12-06T14:12:18.402Z,63.30
2022-12-06T14:14:56.501Z,61.58
2022-12-06T14:17:59.861Z,60.91
2022-12-06T14:20:21.247Z,62.05
2022-12-06T14:22:49.781Z,63.90
2022-12-06T14:25:20.827Z,63.32
2022-12-06T14:27:50.412Z,62.33
2022-12-06T14:30:26.007Z,63.16
2022-12-06T14:32:56.563Z,61.69
2022-12-06T14:35:26.939Z,60.56
2022-12-06T14:37:57.086Z,61.10
2022-12-06T14:40:45.936Z,61.06
2022-12-06T14:43:17.169Z,60.47
2022-12-06T14:45:47.291Z,60.29
2022-12-06T14:48:15.330Z,60.82
2022-12-06T14:50:44.902Z,61.37
2022-12-06T14:53:14.483Z,60.09
2022-12-06T14:55:55.019Z,59.20
2022-12-06T14:58:26.376Z,57.94
2022-12-06T15:00:59.552Z,58.41
2022-12-06T15:03:31.015Z,59.03
2022-12-06T15:06:26.740Z,59.18
2022-12-06T15:09:11.772Z,59.18
2022-12-06T15:11:58.508Z,59.50
2022-12-06T15:14:28.546Z,58.96
2022-12-06T15:17:01.157Z,59.30
2022-12-06T15:19:30.838Z,60.22
2022-12-06T15:21:58.732Z,61.03
2022-12-06T15:24:28.237Z,60.52
2022-12-06T15:26:56.060Z,60.97
2022-12-06T15:29:24.308Z,61.57
2022-12-06T15:31:56.362Z,62.33
2022-12-06T15:34:30.864Z,63.29
2022-12-06T15:37:36.392Z,63.92
2022-12-06T15:39:48.385Z,64.21
2022-12-06T15:42:19.044Z,64.34
2022-12-06T15:44:49.425Z,63.86
2022-12-06T15:47:18.374Z,63.52
2022-12-06T15:49:47.530Z,63.06
2022-12-06T15:52:17.795Z,62.87
2022-12-06T15:54:45.765Z,63.54
2022-12-06T15:57:13.391Z,63.23
2022-12-06T16:02:54.483Z,62.59
2022-12-06T16:05:23.533Z,62.73
2022-12-06T16:07:51.217Z,63.49
2022-12-06T16:10:22.359Z,64.31
2022-12-06T16:13:08.536Z,64.12
2022-12-06T16:15:36.172Z,64.29
2022-12-06T16:18:03.998Z,64.23
2022-12-06T16:20:33.016Z,64.25
2022-12-06T16:23:18.800Z,64.79
2022-12-06T16:25:46.859Z,64.65
2022-12-06T16:28:14.987Z,64.91
2022-12-06T16:30:43.491Z,65.25
2022-12-06T16:33:17.038Z,65.70
2022-12-06T16:35:46.056Z,65.02
2022-12-06T16:38:14.942Z,65.02
2022-12-06T16:40:43.480Z,64.62
2022-12-06T16:43:11.845Z,65.16
2022-12-06T16:45:41.443Z,65.37
2022-12-06T16:48:15.967Z,65.24
2022-12-06T16:50:43.624Z,65.31
2022-12-06T16:53:12.785Z,65.04
2022-12-06T16:55:41.114Z,65.11
2022-12-06T16:58:08.964Z,65.43
2022-12-06T17:00:36.681Z,65.54
2022-12-06T17:03:55.565Z,65.52
2022-12-06T17:06:24.165Z,65.43
2022-12-06T17:08:54.639Z,65.74
2022-12-06T17:11:41.512Z,68.33
2022-12-06T17:14:09.205Z,65.94
2022-12-06T17:16:37.753Z,66.38
2022-12-06T17:19:06.912Z,66.71
2022-12-06T17:21:35.495Z,66.48
2022-12-06T17:24:04.726Z,66.02
2022-12-06T17:26:33.117Z,66.33
2022-12-06T17:29:01.556Z,66.42
2022-12-06T17:31:30.187Z,66.86
2022-12-06T17:34:00.279Z,67.67
2022-12-06T17:36:28.211Z,67.78
2022-12-06T17:38:56.766Z,67.34
2022-12-06T17:41:49.958Z,66.92
2022-12-06T17:44:19.580Z,66.54
2022-12-06T17:46:47.399Z,66.87
2022-12-06T17:49:16.766Z,66.24
2022-12-06T17:51:44.377Z,67.28
2022-12-06T17:54:12.159Z,67.42
2022-12-06T17:56:43.359Z,67.18
2022-12-06T17:59:12.390Z,68.04
2022-12-06T18:02:13.099Z,68.56
2022-12-06T18:04:29.453Z,68.16
2022-12-06T18:06:57.536Z,68.29
2022-12-06T18:09:25.628Z,68.48
2022-12-06T18:11:55.665Z,68.56
2022-12-06T18:14:23.403Z,68.28
2022-12-06T18:16:51.217Z,68.42
2022-12-06T18:19:20.581Z,68.79
2022-12-06T18:21:49.157Z,68.79
2022-12-06T18:24:23.297Z,69.17
2022-12-06T18:26:54.611Z,69.20
2022-12-06T18:29:24.477Z,68.96
2022-12-06T18:31:53.000Z,69.40
2022-12-06T18:34:21.160Z,69.22
2022-12-06T18:36:48.866Z,69.18
2022-12-06T18:39:24.119Z,69.03
2022-12-06T18:41:54.930Z,69.13
2022-12-06T18:44:23.275Z,68.77
2022-12-06T18:46:50.978Z,68.73
2022-12-06T18:49:18.707Z,69.11
2022-12-06T18:51:46.346Z,68.75
2022-12-06T18:54:14.735Z,68.66
2022-12-06T18:56:43.122Z,68.33
2022-12-06T18:59:13.131Z,68.23
2022-12-06T19:01:41.932Z,68.14
2022-12-06T19:04:14.246Z,68.80
2022-12-06T19:06:42.039Z,68.79
2022-12-06T19:09:12.618Z,68.90
2022-12-06T19:11:43.300Z,68.52
2022-12-06T19:14:13.020Z,68.54
2022-12-06T19:16:43.101Z,68.38
2022-12-06T19:19:16.536Z,69.42
2022-12-06T19:21:45.279Z,69.82
2022-12-06T19:24:16.552Z,69.99
2022-12-06T19:26:44.838Z,70.08
2022-12-06T19:29:14.351Z,70.16
2022-12-06T19:31:42.071Z,69.98
2022-12-06T19:34:15.361Z,70.27
2022-12-06T19:36:43.178Z,70.55
2022-12-06T19:39:11.807Z,71.27
2022-12-06T19:41:53.399Z,70.91
2022-12-06T19:44:22.421Z,70.81
2022-12-06T19:46:50.022Z,70.73
2022-12-06T19:49:21.338Z,70.37
2022-12-06T19:51:49.840Z,70.55
2022-12-06T19:54:19.789Z,70.71
2022-12-06T19:56:48.730Z,70.56
2022-12-06T19:59:16.586Z,70.70
2022-12-06T20:01:47.685Z,71.19
2022-12-06T20:04:19.100Z,71.62
2022-12-06T20:06:46.909Z,71.26
2022-12-06T20:09:14.836Z,71.43
2022-12-06T20:12:03.380Z,71.11
2022-12-06T20:14:35.641Z,71.76
2022-12-06T20:17:06.343Z,71.44
2022-12-06T20:19:34.619Z,71.31
2022-12-06T20:22:02.295Z,71.71
2022-12-06T20:24:29.962Z,71.68
2022-12-06T20:26:57.917Z,72.01
2022-12-06T20:29:26.965Z,71.50
2022-12-06T20:31:58.005Z,71.94
2022-12-06T20:34:28.878Z,71.99
2022-12-06T20:36:56.790Z,72.39
2022-12-06T20:39:27.392Z,72.96
2022-12-06T20:41:55.062Z,73.50
2022-12-06T20:44:22.781Z,74.05
2022-12-06T20:46:50.827Z,74.27
2022-12-06T20:49:18.714Z,74.36
2022-12-06T20:51:52.652Z,74.71
2022-12-06T20:54:20.838Z,74.79
2022-12-06T20:56:51.440Z,74.51
2022-12-06T20:59:19.434Z,74.32
2022-12-06T21:01:47.499Z,73.94
2022-12-06T21:04:16.194Z,73.72
2022-12-06T21:06:43.936Z,74.05
2022-12-06T21:09:13.032Z,73.59
2022-12-06T21:11:40.739Z,73.35
2022-12-06T21:14:08.426Z,73.34
2022-12-06T21:16:38.132Z,73.30
2022-12-06T21:19:07.430Z,72.83
2022-12-06T21:21:36.623Z,72.23
2022-12-06T21:24:06.776Z,72.37
2022-12-06T21:26:35.824Z,72.28
2022-12-06T21:29:04.035Z,72.75
2022-12-06T21:31:34.327Z,73.24
2022-12-06T21:34:02.698Z,73.09
2022-12-06T21:36:30.392Z,73.01
2022-12-06T21:38:58.922Z,73.13
2022-12-06T21:41:26.906Z,72.73
2022-12-06T21:43:55.977Z,72.23
2022-12-06T21:46:25.719Z,72.34
2022-12-06T21:48:55.269Z,72.88
2022-12-06T21:51:24.438Z,72.96
2022-12-06T21:53:52.093Z,72.70
2022-12-06T21:56:21.840Z,73.07
2022-12-06T21:58:50.001Z,73.56
2022-12-06T22:01:20.546Z,73.21
2022-12-06T22:03:49.058Z,73.46
2022-12-06T22:06:16.816Z,73.17
2022-12-06T22:08:46.226Z,73.26
2022-12-06T22:11:16.654Z,73.38
2022-12-06T22:13:44.923Z,73.98
2022-12-06T22:16:14.284Z,74.34
2022-12-06T22:18:46.208Z,73.17
2022-12-06T22:21:17.130Z,73.31
2022-12-06T22:23:45.356Z,73.17
2022-12-06T22:26:16.308Z,73.61
2022-12-06T22:28:44.168Z,73.13
2022-12-06T22:31:13.762Z,73.26
2022-12-06T22:33:43.337Z,72.90
2022-12-06T22:36:12.062Z,72.78
2022-12-06T22:38:39.926Z,73.27
2022-12-06T22:41:08.770Z,73.08
2022-12-06T22:43:37.447Z,72.79
2022-12-06T22:46:14.638Z,73.08
2022-12-06T22:48:49.065Z,73.52
2022-12-06T22:51:22.788Z,73.98
2022-12-06T22:53:55.363Z,73.88
2022-12-06T22:57:26.508Z,73.66
2022-12-06T23:14:49.905Z,73.21
2022-12-06T23:17:17.491Z,73.42
2022-12-06T23:19:45.162Z,73.75
2022-12-06T23:22:12.757Z,73.81
2022-12-06T23:24:40.535Z,74.19
2022-12-06T23:27:08.138Z,74.42
2022-12-06T23:33:24.538Z,74.05
2022-12-06T23:36:03.140Z,72.94
2022-12-06T23:38:31.214Z,73.14
2022-12-06T23:41:03.193Z,73.24
2022-12-06T23:43:31.074Z,72.83
2022-12-06T23:46:03.138Z,73.50
2022-12-06T23:48:36.954Z,73.73
2022-12-06T23:51:07.203Z,73.64
2022-12-06T23:53:35.841Z,73.62
2022-12-06T23:56:07.631Z,72.15
2022-12-06T23:58:35.682Z,71.81
